createdAt,value
2022-10-22T00:00:46.732Z,75.82
2022-10-22T00:01:48.864Z,76.54
2022-10-22T00:02:50.887Z,77.95
2022-10-22T00:03:52.545Z,78.66
2022-10-22T00:04:56.999Z,78.59
2022-10-22T00:05:58.997Z,79.08
2022-10-22T00:07:00.644Z,79.88
2022-10-22T00:08:02.291Z,79.05
2022-10-22T00:09:04.295Z,79.74
2022-10-22T00:10:07.259Z,78.66
2022-10-22T00:11:14.268Z,78.56
2022-10-22T00:12:16.731Z,77.78
2022-10-22T00:13:18.911Z,77.36
2022-10-22T00:14:20.720Z,77.44
2022-10-22T00:15:22.395Z,76.51
2022-10-22T00:16:23.968Z,77.12
2022-10-22T00:17:25.495Z,76.38
2022-10-22T00:18:27.044Z,76.85
2022-10-22T00:19:28.778Z,75.71
2022-10-22T00:20:30.322Z,75.53
2022-10-22T00:21:31.946Z,75.79
2022-10-22T00:22:33.482Z,74.46
2022-10-22T00:23:35.420Z,75.54
2022-10-22T00:24:39.019Z,74.87
2022-10-22T00:25:40.535Z,74.65
2022-10-22T00:26:42.163Z,74.68
2022-10-22T00:27:43.778Z,74.77
2022-10-22T00:28:45.318Z,75.35
2022-10-22T00:29:46.920Z,74.23
2022-10-22T00:30:48.668Z,75.35
2022-10-22T00:31:50.617Z,74.25
2022-10-22T00:32:52.219Z,75.12
2022-10-22T00:33:53.769Z,74.33
2022-10-22T00:34:55.408Z,75.09
2022-10-22T00:35:57.109Z,74.91
2022-10-22T00:36:59.113Z,74.68
2022-10-22T00:38:00.641Z,74.94
2022-10-22T00:39:02.175Z,75.48
2022-10-22T00:40:04.488Z,76.36
2022-10-22T00:41:06.644Z,76.08
2022-10-22T00:42:16.769Z,77.23
2022-10-22T00:43:19.838Z,76.10
2022-10-22T00:45:05.479Z,76.21
2022-10-22T00:46:06.984Z,76.05
2022-10-22T00:47:08.619Z,75.34
2022-10-22T00:48:20.268Z,75.61
2022-10-22T00:49:21.829Z,76.14
2022-10-22T00:50:38.259Z,76.39
2022-10-22T00:51:39.759Z,76.39
2022-10-22T00:52:41.853Z,75.82
2022-10-22T00:53:53.607Z,75.70
2022-10-22T00:54:55.448Z,75.81
2022-10-22T00:55:57.104Z,75.45
2022-10-22T00:56:58.676Z,75.48
2022-10-22T00:58:01.415Z,75.22
2022-10-22T00:59:04.026Z,74.92
2022-10-22T01:00:06.875Z,74.14
2022-10-22T01:01:15.871Z,75.10
2022-10-22T01:02:17.840Z,73.84
2022-10-22T01:03:19.443Z,74.31
2022-10-22T01:04:21.486Z,74.04
2022-10-22T01:05:23.520Z,75.06
2022-10-22T01:06:30.811Z,75.88
2022-10-22T01:07:44.523Z,76.63
2022-10-22T01:09:00.138Z,77.06
2022-10-22T01:10:07.680Z,78.66
2022-10-22T01:11:36.395Z,80.41
2022-10-22T01:12:52.786Z,80.66
2022-10-22T01:14:04.557Z,80.54
2022-10-22T01:15:17.952Z,81.64
2022-10-22T01:16:34.752Z,82.18
2022-10-22T01:17:58.440Z,81.23
2022-10-22T01:19:37.250Z,81.00
2022-10-22T01:21:00.232Z,81.69
2022-10-22T01:22:08.507Z,81.97
2022-10-22T01:23:36.496Z,82.36
2022-10-22T01:25:13.305Z,83.55
2022-10-22T01:26:33.620Z,85.54
2022-10-22T01:27:38.218Z,86.52
2022-10-22T01:28:45.350Z,87.43
2022-10-22T01:30:02.056Z,87.44
2022-10-22T01:31:06.005Z,88.04
2022-10-22T01:32:12.873Z,87.93
2022-10-22T01:33:19.069Z,88.35
2022-10-22T01:34:22.939Z,88.91
2022-10-22T01:36:37.347Z,88.60
2022-10-22T01:37:48.736Z,89.03
2022-10-22T01:38:51.533Z,89.84
2022-10-22T01:39:54.197Z,89.88
2022-10-22T01:40:57.429Z,89.69
2022-10-22T01:41:58.940Z,89.50
2022-10-22T01:43:02.700Z,89.65
2022-10-22T01:44:04.451Z,89.42
2022-10-22T01:45:13.781Z,89.13
2022-10-22T01:46:17.184Z,89.01
2022-10-22T01:48:00.919Z,89.21
2022-10-22T01:49:02.424Z,88.13
2022-10-22T01:50:25.808Z,88.25
2022-10-22T01:51:42.883Z,88.07
2022-10-22T01:52:52.424Z,89.17
2022-10-22T01:54:17.228Z,89.20
2022-10-22T01:55:48.031Z,89.70
2022-10-22T01:57:31.052Z,90.02
2022-10-22T01:59:20.566Z,89.97
2022-10-22T02:00:22.201Z,88.73
2022-10-22T02:01:32.098Z,88.31
2022-10-22T02:02:48.853Z,87.60
2022-10-22T02:04:01.414Z,87.00
2022-10-22T02:05:15.101Z,87.47
2022-10-22T02:06:21.104Z,87.29
2022-10-22T02:07:28.865Z,86.64
2022-10-22T02:08:33.736Z,85.95
2022-10-22T02:09:36.603Z,86.24
2022-10-22T02:10:40.771Z,86.51
2022-10-22T02:11:44.247Z,87.62
2022-10-22T02:12:50.558Z,87.88
2022-10-22T02:13:56.786Z,88.81
2022-10-22T02:15:00.858Z,88.58
2022-10-22T02:16:04.436Z,87.98
2022-10-22T02:17:12.214Z,87.12
2022-10-22T02:18:15.774Z,87.17
2022-10-22T02:19:26.393Z,84.89
2022-10-22T02:20:34.420Z,84.02
2022-10-22T02:21:36.042Z,83.40
2022-10-22T02:22:38.069Z,83.12
2022-10-22T02:23:40.004Z,83.07
2022-10-22T02:24:41.830Z,83.53
2022-10-22T02:25:49.641Z,83.65
2022-10-22T02:27:15.857Z,83.87
2022-10-22T02:28:21.954Z,83.48
2022-10-22T02:29:35.757Z,82.40
2022-10-22T02:30:40.072Z,81.83
2022-10-22T02:31:45.139Z,82.19
2022-10-22T02:33:04.266Z,81.29
2022-10-22T02:34:11.273Z,80.87
2022-10-22T02:35:17.487Z,80.29
2022-10-22T02:36:20.175Z,79.92
2022-10-22T02:37:23.429Z,81.25
2022-10-22T02:38:27.016Z,81.03
2022-10-22T02:39:30.156Z,80.98
2022-10-22T02:40:32.423Z,81.43
2022-10-22T02:41:34.417Z,82.20
2022-10-22T02:42:38.018Z,83.09
2022-10-22T02:43:45.764Z,83.01
2022-10-22T02:44:47.308Z,83.17
2022-10-22T02:45:49.272Z,82.70
2022-10-22T02:46:51.237Z,83.14
2022-10-22T02:47:52.828Z,83.37
2022-10-22T02:48:54.449Z,84.17
2022-10-22T02:49:55.978Z,84.09
2022-10-22T02:50:57.511Z,84.37
2022-10-22T02:51:59.781Z,84.42
2022-10-22T02:53:01.317Z,83.98
2022-10-22T02:54:05.105Z,83.80
2022-10-22T02:55:07.040Z,83.14
2022-10-22T02:56:09.163Z,83.19
2022-10-22T02:57:10.812Z,82.90
2022-10-22T02:58:13.994Z,82.48
2022-10-22T02:59:15.533Z,82.27
2022-10-22T03:00:17.198Z,81.42
2022-10-22T03:01:18.784Z,81.08
2022-10-22T03:02:20.357Z,80.97
2022-10-22T03:03:21.940Z,81.50
2022-10-22T03:04:23.471Z,81.94
2022-10-22T03:05:25.016Z,81.88
2022-10-22T03:06:26.635Z,81.93
2022-10-22T03:07:28.208Z,81.95
2022-10-22T03:08:30.014Z,83.35
2022-10-22T03:09:31.584Z,83.89
2022-10-22T03:10:33.158Z,85.17
2022-10-22T03:11:34.695Z,86.37
2022-10-22T03:12:36.250Z,88.08
2022-10-22T03:13:38.163Z,88.82
2022-10-22T03:14:39.717Z,89.26
2022-10-22T03:15:41.285Z,89.60
2022-10-22T03:16:42.854Z,89.88
2022-10-22T03:17:44.434Z,90.19
2022-10-22T03:18:46.047Z,89.64
2022-10-22T03:19:47.894Z,88.90
2022-10-22T03:20:49.440Z,88.23
2022-10-22T03:21:56.147Z,87.04
2022-10-22T03:22:57.856Z,86.60
2022-10-22T03:24:02.831Z,85.86
2022-10-22T03:25:10.498Z,86.43
2022-10-22T03:26:13.698Z,84.92
2022-10-22T03:27:18.560Z,84.46
2022-10-22T03:28:20.808Z,83.38
2022-10-22T03:29:25.674Z,83.47
2022-10-22T03:30:27.294Z,82.41
2022-10-22T03:31:28.908Z,82.42
2022-10-22T03:32:31.844Z,82.52
2022-10-22T03:33:34.952Z,82.04
2022-10-22T03:34:36.525Z,81.83
2022-10-22T03:35:43.974Z,81.17
2022-10-22T03:36:45.966Z,80.99
2022-10-22T03:37:47.737Z,79.46
2022-10-22T03:38:49.659Z,79.84
2022-10-22T03:39:52.381Z,79.34
2022-10-22T03:40:55.418Z,80.39
2022-10-22T03:41:57.718Z,80.98
2022-10-22T03:42:59.417Z,81.78
2022-10-22T03:44:03.090Z,82.53
2022-10-22T03:45:05.795Z,83.38
2022-10-22T03:46:07.903Z,82.92
2022-10-22T03:47:09.568Z,83.07
2022-10-22T03:48:11.148Z,82.84
2022-10-22T03:49:12.699Z,84.10
2022-10-22T03:50:14.396Z,84.20
2022-10-22T03:51:16.257Z,83.82
2022-10-22T03:52:18.182Z,83.64
2022-10-22T03:53:19.936Z,83.21
2022-10-22T03:54:21.472Z,82.92
2022-10-22T03:55:23.032Z,83.07
2022-10-22T03:56:24.709Z,83.75
2022-10-22T03:57:26.288Z,85.59
2022-10-22T03:58:28.021Z,86.47
2022-10-22T03:59:29.547Z,87.29
2022-10-22T04:00:31.126Z,87.61
2022-10-22T04:01:32.771Z,87.80
2022-10-22T04:02:34.492Z,87.68
2022-10-22T04:03:36.343Z,87.45
2022-10-22T04:04:38.200Z,87.90
2022-10-22T04:05:39.771Z,87.54
2022-10-22T04:06:41.300Z,88.19
2022-10-22T04:07:43.095Z,87.71
2022-10-22T04:08:45.490Z,87.27
2022-10-22T04:09:47.130Z,86.74
2022-10-22T04:10:52.197Z,86.78
2022-10-22T04:11:53.770Z,87.16
2022-10-22T04:12:55.381Z,86.34
2022-10-22T04:13:56.952Z,86.60
2022-10-22T04:14:58.537Z,86.48
2022-10-22T04:16:16.039Z,85.93
2022-10-22T04:17:17.580Z,86.24
2022-10-22T04:18:20.627Z,86.96
2022-10-22T04:19:22.305Z,87.94
2022-10-22T04:20:23.920Z,87.90
2022-10-22T04:21:25.967Z,88.22
2022-10-22T04:22:27.472Z,88.46
2022-10-22T04:23:29.037Z,88.76
2022-10-22T04:24:32.054Z,88.70
2022-10-22T04:25:33.612Z,89.50
2022-10-22T04:26:35.231Z,89.50
2022-10-22T04:27:36.970Z,90.73
2022-10-22T04:28:38.584Z,90.86
2022-10-22T04:29:40.149Z,91.82
2022-10-22T04:30:41.691Z,92.10
2022-10-22T04:31:43.356Z,92.51
2022-10-22T04:32:44.912Z,93.30
2022-10-22T04:33:47.061Z,93.14
2022-10-22T04:34:48.642Z,93.83
2022-10-22T04:35:50.250Z,93.39
2022-10-22T04:36:51.796Z,93.93
2022-10-22T04:37:54.969Z,93.07
2022-10-22T04:38:59.609Z,93.28
2022-10-22T04:40:01.211Z,93.65
2022-10-22T04:41:23.266Z,92.89
2022-10-22T04:42:24.863Z,92.80
2022-10-22T04:43:27.065Z,92.29
2022-10-22T04:44:28.645Z,91.94
2022-10-22T04:45:30.358Z,91.68
2022-10-22T04:46:33.733Z,91.62
2022-10-22T04:47:35.361Z,90.80
2022-10-22T04:48:38.485Z,89.91
2022-10-22T04:49:40.434Z,89.54
2022-10-22T04:50:41.952Z,88.55
2022-10-22T04:51:43.484Z,88.18
2022-10-22T04:52:45.004Z,87.41
2022-10-22T04:53:47.171Z,87.79
2022-10-22T04:54:48.682Z,87.03
2022-10-22T04:55:50.226Z,86.89
2022-10-22T04:56:51.985Z,85.98
2022-10-22T04:57:53.601Z,85.71
2022-10-22T04:58:58.372Z,84.14
2022-10-22T05:00:02.170Z,83.91
2022-10-22T05:01:18.461Z,83.04
2022-10-22T05:02:20.020Z,82.65
2022-10-22T05:03:21.591Z,83.04
2022-10-22T05:04:23.154Z,82.38
2022-10-22T05:05:24.708Z,82.46
2022-10-22T05:06:28.456Z,82.80
2022-10-22T05:07:30.300Z,83.17
2022-10-22T05:08:32.080Z,82.95
2022-10-22T05:09:33.736Z,83.50
2022-10-22T05:10:35.250Z,82.86
2022-10-22T05:11:41.483Z,82.48
2022-10-22T05:12:43.049Z,82.69
2022-10-22T05:13:44.688Z,82.65
2022-10-22T05:14:46.263Z,83.01
2022-10-22T05:15:47.826Z,83.09
2022-10-22T05:16:52.345Z,82.84
2022-10-22T05:17:56.447Z,82.46
2022-10-22T05:19:02.099Z,82.88
2022-10-22T05:20:07.021Z,83.16
2022-10-22T05:21:11.335Z,82.68
2022-10-22T05:22:12.979Z,83.18
2022-10-22T05:23:15.156Z,83.22
2022-10-22T05:24:16.940Z,82.90
2022-10-22T05:25:18.632Z,82.88
2022-10-22T05:26:23.795Z,83.21
2022-10-22T05:27:25.692Z,83.32
2022-10-22T05:28:27.236Z,83.39
2022-10-22T05:29:28.942Z,84.56
2022-10-22T05:30:30.596Z,84.42
2022-10-22T05:31:32.332Z,83.82
2022-10-22T05:32:35.453Z,83.82
2022-10-22T05:33:37.328Z,83.28
2022-10-22T05:34:40.031Z,83.90
2022-10-22T05:35:46.625Z,83.36
2022-10-22T05:36:48.599Z,83.38
2022-10-22T05:37:50.229Z,83.67
2022-10-22T05:38:51.997Z,83.33
2022-10-22T05:40:01.842Z,82.39
2022-10-22T05:41:22.606Z,82.07
2022-10-22T05:42:24.195Z,82.54
2022-10-22T05:43:25.719Z,82.34
2022-10-22T05:44:27.255Z,81.13
2022-10-22T05:45:28.805Z,80.95
2022-10-22T05:46:33.334Z,81.51
2022-10-22T05:47:34.912Z,80.53
2022-10-22T05:48:36.698Z,80.69
2022-10-22T05:49:38.291Z,80.46
2022-10-22T05:50:39.824Z,80.71
2022-10-22T05:51:43.446Z,79.95
2022-10-22T05:52:44.944Z,80.47
2022-10-22T05:53:50.834Z,80.58
2022-10-22T05:54:52.396Z,80.23
2022-10-22T05:55:53.936Z,79.96
2022-10-22T05:56:55.723Z,80.52
2022-10-22T05:57:57.337Z,80.94
2022-10-22T05:58:59.374Z,80.23
2022-10-22T06:00:00.927Z,79.74
2022-10-22T06:01:04.934Z,79.06
2022-10-22T06:02:06.935Z,79.70
2022-10-22T06:03:08.518Z,80.18
2022-10-22T06:04:12.831Z,80.20
2022-10-22T06:05:14.519Z,80.17
2022-10-22T06:06:21.246Z,81.98
2022-10-22T06:07:23.148Z,82.08
2022-10-22T06:08:24.729Z,82.92
2022-10-22T06:09:28.766Z,82.45
2022-10-22T06:10:30.762Z,83.45
2022-10-22T06:11:35.030Z,84.35
2022-10-22T06:12:39.336Z,84.31
2022-10-22T06:13:41.109Z,84.71
2022-10-22T06:14:42.729Z,83.95
2022-10-22T06:15:46.728Z,85.31
2022-10-22T06:16:49.002Z,86.12
2022-10-22T06:17:50.595Z,86.22
2022-10-22T06:18:52.156Z,87.17
2022-10-22T06:19:53.780Z,86.92
2022-10-22T06:20:55.542Z,86.15
2022-10-22T06:21:57.085Z,85.68
2022-10-22T06:22:58.663Z,85.12
2022-10-22T06:24:01.580Z,83.95
2022-10-22T06:25:05.919Z,83.22
2022-10-22T06:26:08.401Z,82.91
2022-10-22T06:27:10.021Z,83.70
2022-10-22T06:28:11.638Z,82.95
2022-10-22T06:29:13.443Z,82.70
2022-10-22T06:30:15.158Z,82.66
2022-10-22T06:31:16.953Z,83.55
2022-10-22T06:32:20.867Z,83.27
2022-10-22T06:33:26.000Z,82.55
2022-10-22T06:34:27.586Z,82.69
2022-10-22T06:35:29.118Z,82.88
2022-10-22T06:36:30.916Z,82.66
2022-10-22T06:37:32.506Z,81.40
2022-10-22T06:38:36.571Z,80.75
2022-10-22T06:39:38.202Z,79.96
2022-10-22T06:40:43.459Z,79.23
2022-10-22T06:41:47.967Z,78.76
2022-10-22T06:42:49.553Z,77.44
2022-10-22T06:43:51.245Z,77.01
2022-10-22T06:44:54.270Z,76.76
2022-10-22T06:46:00.773Z,76.15
2022-10-22T06:47:04.190Z,74.45
2022-10-22T06:48:06.164Z,75.62
2022-10-22T06:49:07.870Z,75.60
2022-10-22T06:50:09.786Z,74.32
2022-10-22T06:51:12.617Z,74.65
2022-10-22T06:52:16.576Z,74.29
2022-10-22T06:53:18.152Z,72.95
2022-10-22T06:54:20.856Z,72.36
2022-10-22T06:55:22.592Z,72.84
2022-10-22T06:56:26.666Z,73.35
2022-10-22T06:57:29.936Z,73.38
2022-10-22T06:58:34.106Z,70.83
2022-10-22T06:59:35.990Z,70.83
2022-10-22T07:00:39.926Z,71.70
2022-10-22T07:01:42.470Z,72.08
2022-10-22T07:02:44.253Z,70.96
2022-10-22T07:03:48.744Z,72.25
2022-10-22T07:04:50.318Z,70.40
2022-10-22T07:05:52.551Z,69.50
2022-10-22T07:06:57.153Z,69.33
2022-10-22T07:07:58.746Z,69.33
2022-10-22T07:09:02.810Z,69.39
2022-10-22T07:10:04.877Z,69.04
2022-10-22T07:11:12.647Z,68.43
2022-10-22T07:12:14.529Z,69.09
2022-10-22T07:13:16.189Z,69.08
2022-10-22T07:14:20.158Z,68.56
2022-10-22T07:15:23.301Z,68.31
2022-10-22T07:16:29.679Z,68.54
2022-10-22T07:17:34.010Z,68.29
2022-10-22T07:18:37.386Z,76.27
2022-10-22T07:19:39.152Z,80.63
2022-10-22T07:20:40.805Z,74.53
2022-10-22T07:21:42.473Z,69.90
2022-10-22T07:22:44.409Z,67.23
2022-10-22T07:23:46.631Z,66.71
2022-10-22T07:24:49.564Z,66.89
2022-10-22T07:25:51.450Z,69.11
2022-10-22T07:26:56.180Z,69.75
2022-10-22T07:27:57.953Z,68.78
2022-10-22T07:29:00.828Z,67.95
2022-10-22T07:30:03.664Z,67.50
2022-10-22T07:31:09.714Z,67.03
2022-10-22T07:32:12.018Z,66.90
2022-10-22T07:33:13.923Z,66.51
2022-10-22T07:34:15.820Z,65.52
2022-10-22T07:35:17.435Z,64.67
2022-10-22T07:36:19.276Z,64.30
2022-10-22T07:37:23.854Z,64.72
2022-10-22T07:38:25.877Z,66.02
2022-10-22T07:39:29.839Z,67.66
2022-10-22T07:40:31.938Z,69.61
2022-10-22T07:41:33.553Z,69.45
2022-10-22T07:42:35.111Z,70.85
2022-10-22T07:43:38.030Z,71.30
2022-10-22T07:44:39.755Z,70.19
2022-10-22T07:45:41.872Z,69.60
2022-10-22T07:46:45.504Z,69.47
2022-10-22T07:47:49.939Z,67.52
2022-10-22T07:48:51.886Z,67.14
2022-10-22T07:49:53.998Z,66.64
2022-10-22T07:51:02.839Z,66.19
2022-10-22T07:52:05.900Z,66.70
2022-10-22T07:53:07.547Z,67.38
2022-10-22T07:54:09.167Z,67.56
2022-10-22T07:55:11.425Z,67.11
2022-10-22T07:56:13.918Z,66.31
2022-10-22T07:57:15.581Z,66.51
2022-10-22T07:58:21.469Z,66.84
2022-10-22T07:59:23.170Z,66.25
2022-10-22T08:00:25.478Z,65.68
2022-10-22T08:01:27.406Z,64.72
2022-10-22T08:02:29.059Z,64.64
2022-10-22T08:03:31.904Z,64.38
2022-10-22T08:04:33.511Z,64.04
2022-10-22T08:05:35.093Z,64.73
2022-10-22T08:06:36.849Z,63.75
2022-10-22T08:07:38.436Z,63.61
2022-10-22T08:08:40.110Z,62.90
2022-10-22T08:09:41.798Z,62.86
2022-10-22T08:10:44.167Z,62.26
2022-10-22T08:11:46.363Z,62.26
2022-10-22T08:12:51.088Z,61.58
2022-10-22T08:13:53.969Z,61.75
2022-10-22T08:14:55.689Z,61.69
2022-10-22T08:16:00.544Z,60.30
2022-10-22T08:17:08.239Z,61.51
2022-10-22T08:18:09.935Z,62.13
2022-10-22T08:19:11.613Z,62.94
2022-10-22T08:20:13.307Z,62.69
2022-10-22T08:21:14.990Z,61.61
2022-10-22T08:22:16.664Z,60.80
2022-10-22T08:23:28.961Z,61.59
2022-10-22T08:24:30.725Z,60.98
2022-10-22T08:25:34.297Z,61.08
2022-10-22T08:26:35.945Z,60.70
2022-10-22T08:27:38.460Z,60.23
2022-10-22T08:28:40.240Z,60.25
2022-10-22T08:29:41.862Z,60.60
2022-10-22T08:30:45.063Z,61.42
2022-10-22T08:31:46.658Z,60.99
2022-10-22T08:32:51.592Z,60.55
2022-10-22T08:33:55.630Z,60.83
2022-10-22T08:34:57.462Z,61.76
2022-10-22T08:35:59.598Z,63.55
2022-10-22T08:37:01.318Z,63.14
2022-10-22T08:38:02.901Z,62.82
2022-10-22T08:39:06.826Z,62.19
2022-10-22T08:40:12.177Z,61.20
2022-10-22T08:41:15.715Z,60.12
2022-10-22T08:42:37.810Z,59.68
2022-10-22T08:43:42.358Z,58.98
2022-10-22T08:44:59.733Z,59.79
2022-10-22T08:46:16.675Z,58.69
2022-10-22T08:47:32.839Z,58.58
2022-10-22T08:48:43.418Z,59.43
2022-10-22T08:49:45.062Z,58.71
2022-10-22T08:50:49.816Z,58.72
2022-10-22T08:51:52.874Z,58.66
2022-10-22T08:53:03.266Z,58.86
2022-10-22T08:54:53.091Z,59.48
2022-10-22T08:55:54.946Z,58.95
2022-10-22T08:57:09.095Z,59.23
2022-10-22T08:58:36.222Z,60.48
2022-10-22T08:59:53.562Z,59.54
2022-10-22T09:01:14.657Z,61.80
2022-10-22T09:02:56.297Z,61.27
2022-10-22T09:04:00.355Z,60.79
2022-10-22T09:05:17.443Z,60.48
2022-10-22T09:06:25.138Z,60.10
2022-10-22T09:07:26.769Z,60.67
2022-10-22T09:08:29.058Z,58.99
2022-10-22T09:09:37.355Z,60.04
2022-10-22T09:10:43.446Z,61.43
2022-10-22T09:11:51.064Z,60.50
2022-10-22T09:12:53.082Z,60.44
2022-10-22T09:13:57.249Z,61.12
2022-10-22T09:14:58.936Z,60.93
2022-10-22T09:16:11.552Z,60.51
2022-10-22T09:17:28.296Z,60.92
2022-10-22T09:18:52.101Z,61.55
2022-10-22T09:20:01.882Z,61.81
2022-10-22T09:21:14.288Z,61.81
2022-10-22T09:22:24.885Z,61.54
2022-10-22T09:23:38.415Z,61.85
2022-10-22T09:24:46.898Z,61.24
2022-10-22T09:25:50.041Z,61.46
2022-10-22T09:26:51.694Z,60.81
2022-10-22T09:27:58.425Z,61.05
2022-10-22T09:29:01.005Z,60.13
2022-10-22T09:30:02.793Z,59.66
2022-10-22T09:31:12.106Z,59.85
2022-10-22T09:32:14.857Z,60.08
2022-10-22T09:33:27.813Z,60.65
2022-10-22T09:34:30.680Z,61.04
2022-10-22T09:36:05.770Z,60.32
2022-10-22T09:37:09.787Z,59.46
2022-10-22T09:38:13.945Z,59.60
2022-10-22T09:39:29.650Z,59.44
2022-10-22T09:40:31.242Z,59.52
2022-10-22T09:41:33.225Z,59.91
2022-10-22T09:42:36.532Z,59.44
2022-10-22T09:43:38.415Z,59.50
2022-10-22T09:44:46.339Z,58.91
2022-10-22T09:45:58.069Z,59.17
2022-10-22T09:46:59.748Z,59.66
2022-10-22T09:48:15.897Z,61.00
2022-10-22T09:49:24.153Z,61.13
2022-10-22T09:50:47.325Z,60.64
2022-10-22T09:52:00.260Z,59.70
2022-10-22T09:53:17.313Z,57.91
2022-10-22T09:54:25.664Z,58.18
2022-10-22T09:55:31.199Z,58.45
2022-10-22T09:56:32.862Z,60.10
2022-10-22T09:57:38.767Z,58.73
2022-10-22T09:58:49.455Z,58.83
2022-10-22T09:59:54.056Z,58.89
2022-10-22T10:01:00.803Z,58.53
2022-10-22T10:02:37.079Z,58.91
2022-10-22T10:03:39.584Z,57.96
2022-10-22T10:04:46.677Z,57.57
2022-10-22T10:05:53.616Z,58.09
2022-10-22T10:06:56.673Z,56.43
2022-10-22T10:07:59.741Z,57.74
2022-10-22T10:09:06.452Z,58.86
2022-10-22T10:10:21.302Z,57.63
2022-10-22T10:11:40.421Z,58.04
2022-10-22T10:12:42.045Z,58.56
2022-10-22T10:13:47.554Z,58.60
2022-10-22T10:15:24.670Z,57.68
2022-10-22T10:16:55.593Z,58.23
2022-10-22T10:18:43.802Z,57.25
2022-10-22T10:20:03.685Z,56.33
2022-10-22T10:21:16.156Z,56.72
2022-10-22T10:22:46.988Z,57.22
2022-10-22T10:24:07.774Z,57.21
2022-10-22T10:25:32.753Z,56.48
2022-10-22T10:27:00.148Z,55.22
2022-10-22T10:28:07.706Z,54.52
2022-10-22T10:29:17.908Z,52.43
2022-10-22T10:30:23.987Z,53.00
2022-10-22T10:31:52.640Z,54.27
2022-10-22T10:33:06.599Z,52.43
2022-10-22T10:34:33.681Z,52.58
2022-10-22T10:35:41.454Z,52.26
2022-10-22T10:36:46.147Z,52.93
2022-10-22T10:38:08.428Z,53.35
2022-10-22T10:39:38.269Z,52.90
2022-10-22T10:40:57.083Z,52.91
2022-10-22T10:42:08.416Z,52.76
2022-10-22T10:43:18.894Z,52.31
2022-10-22T10:45:08.272Z,51.46
2022-10-22T10:46:31.222Z,51.23
2022-10-22T10:48:06.018Z,52.20
2022-10-22T10:49:18.969Z,52.15
2022-10-22T10:50:28.020Z,53.25
2022-10-22T10:51:51.284Z,53.44
2022-10-22T10:53:14.826Z,51.92
2022-10-22T10:54:25.570Z,51.80
2022-10-22T10:55:38.843Z,50.89
2022-10-22T10:56:49.053Z,50.38
2022-10-22T10:58:15.017Z,50.85
2022-10-22T10:59:48.157Z,50.68
2022-10-22T11:00:57.080Z,50.23
2022-10-22T11:02:15.162Z,51.89
2022-10-22T11:03:45.898Z,51.46
2022-10-22T11:05:07.254Z,48.88
2022-10-22T11:06:16.264Z,49.25
2022-10-22T11:07:34.163Z,50.21
2022-10-22T11:08:54.774Z,50.20
2022-10-22T11:10:02.833Z,49.14
2022-10-22T11:11:08.224Z,49.26
2022-10-22T11:12:22.783Z,49.69
2022-10-22T11:13:28.741Z,49.39
2022-10-22T11:14:49.517Z,49.00
2022-10-22T11:16:03.654Z,48.70
2022-10-22T11:17:17.055Z,48.46
2022-10-22T11:18:34.576Z,49.10
2022-10-22T11:19:52.473Z,49.64
2022-10-22T11:21:17.738Z,48.74
2022-10-22T11:22:27.093Z,49.78
2022-10-22T11:23:39.287Z,48.29
2022-10-22T11:24:50.760Z,49.34
2022-10-22T11:25:52.421Z,48.14
2022-10-22T11:27:02.167Z,48.66
2022-10-22T11:28:11.640Z,48.36
2022-10-22T11:29:21.750Z,48.27
2022-10-22T11:30:26.112Z,47.91
2022-10-22T11:31:31.009Z,47.05
2022-10-22T11:32:33.595Z,48.77
2022-10-22T11:33:48.586Z,47.10
2022-10-22T11:34:54.548Z,47.22
2022-10-22T11:35:59.457Z,46.51
2022-10-22T11:37:03.182Z,46.23
2022-10-22T11:38:07.577Z,46.07
2022-10-22T11:39:29.421Z,47.03
2022-10-22T11:40:39.120Z,46.14
2022-10-22T11:41:40.932Z,47.27
2022-10-22T11:42:52.497Z,46.78
2022-10-22T11:44:23.310Z,47.01
2022-10-22T11:45:24.922Z,46.56
2022-10-22T11:46:44.562Z,45.61
2022-10-22T11:47:58.307Z,45.96
2022-10-22T11:49:07.845Z,46.76
2022-10-22T11:50:26.188Z,45.88
2022-10-22T11:51:39.934Z,46.48
2022-10-22T11:53:09.287Z,46.32
2022-10-22T11:54:37.391Z,45.92
2022-10-22T11:55:46.024Z,45.77
2022-10-22T11:56:54.925Z,45.84
2022-10-22T11:57:59.265Z,45.92
2022-10-22T11:59:00.810Z,46.90
2022-10-22T12:00:10.090Z,45.45
2022-10-22T12:01:11.716Z,46.49
2022-10-22T12:02:40.578Z,46.12
2022-10-22T12:04:04.009Z,46.28
2022-10-22T12:05:23.860Z,46.38
2022-10-22T12:06:28.054Z,46.27
2022-10-22T12:08:00.263Z,45.81
2022-10-22T12:09:07.078Z,45.84
2022-10-22T12:10:25.695Z,45.79
2022-10-22T12:11:44.024Z,46.37
2022-10-22T12:12:55.897Z,47.66
2022-10-22T12:14:21.689Z,47.24
2022-10-22T12:15:29.974Z,46.54
2022-10-22T12:16:55.834Z,47.33
2022-10-22T12:18:06.757Z,46.90
2022-10-22T12:19:15.012Z,46.96
2022-10-22T12:20:17.637Z,47.56
2022-10-22T12:21:20.688Z,47.50
2022-10-22T12:22:32.152Z,47.22
2022-10-22T12:23:35.633Z,46.92
2022-10-22T12:24:40.757Z,47.47
2022-10-22T12:25:42.377Z,47.39
2022-10-22T12:26:46.070Z,46.65
2022-10-22T12:27:55.115Z,48.03
2022-10-22T12:28:58.779Z,47.66
2022-10-22T12:30:01.952Z,47.13
2022-10-22T12:31:03.635Z,47.28
2022-10-22T12:32:05.584Z,47.93
2022-10-22T12:33:18.008Z,48.05
2022-10-22T12:34:25.781Z,46.97
2022-10-22T12:35:43.798Z,47.03
2022-10-22T12:36:48.078Z,47.40
2022-10-22T12:38:11.043Z,47.60
2022-10-22T12:39:19.393Z,47.27
2022-10-22T12:40:33.404Z,47.29
2022-10-22T12:41:37.023Z,47.41
2022-10-22T12:42:38.734Z,47.88
2022-10-22T12:43:42.409Z,47.75
2022-10-22T12:44:53.680Z,47.18
2022-10-22T12:45:57.833Z,46.80
2022-10-22T12:46:59.665Z,47.12
2022-10-22T12:48:09.279Z,47.50
2022-10-22T12:49:29.337Z,46.58
2022-10-22T12:50:42.625Z,47.21
2022-10-22T12:51:46.037Z,47.26
2022-10-22T12:52:48.864Z,46.76
2022-10-22T12:53:55.886Z,46.90
2022-10-22T12:54:58.022Z,47.47
2022-10-22T12:56:04.217Z,47.44
2022-10-22T12:57:05.892Z,47.45
2022-10-22T12:58:08.473Z,47.57
2022-10-22T12:59:19.748Z,47.14
2022-10-22T13:00:26.149Z,47.54
2022-10-22T13:01:32.546Z,47.58
2022-10-22T13:02:34.413Z,47.68
2022-10-22T13:03:44.904Z,47.45
2022-10-22T13:05:24.972Z,47.18
2022-10-22T13:06:28.735Z,47.96
2022-10-22T13:07:38.950Z,47.19
2022-10-22T13:08:41.343Z,48.19
2022-10-22T13:09:44.415Z,47.79
2022-10-22T13:10:54.320Z,47.92
2022-10-22T13:12:04.595Z,47.91
2022-10-22T13:13:07.113Z,48.59
2022-10-22T13:14:38.364Z,48.54
2022-10-22T13:15:42.645Z,47.75
2022-10-22T13:17:03.154Z,48.81
2022-10-22T13:18:18.945Z,47.82
2022-10-22T13:19:56.427Z,48.18
2022-10-22T13:21:03.608Z,48.52
2022-10-22T13:22:05.252Z,48.49
2022-10-22T13:23:20.757Z,48.39
2022-10-22T13:24:24.570Z,48.57
2022-10-22T13:25:29.269Z,48.60
2022-10-22T13:26:37.319Z,47.87
2022-10-22T13:27:45.172Z,48.77
2022-10-22T13:28:51.902Z,48.22
2022-10-22T13:30:24.801Z,48.58
2022-10-22T13:31:23.899Z,48.71
2022-10-22T13:32:33.849Z,48.31
2022-10-22T13:33:42.383Z,48.05
2022-10-22T13:34:58.744Z,48.49
2022-10-22T13:36:00.883Z,48.26
2022-10-22T13:37:03.934Z,49.12
2022-10-22T13:38:19.852Z,48.38
2022-10-22T13:39:26.412Z,47.79
2022-10-22T13:40:30.238Z,49.22
2022-10-22T13:41:32.459Z,48.76
2022-10-22T13:42:34.220Z,48.71
2022-10-22T13:43:35.943Z,48.84
2022-10-22T13:44:37.665Z,48.71
2022-10-22T13:45:39.783Z,48.82
2022-10-22T13:46:43.205Z,47.85
2022-10-22T13:47:49.725Z,48.68
2022-10-22T13:48:53.747Z,48.91
2022-10-22T13:50:00.801Z,49.18
2022-10-22T13:51:02.565Z,48.79
2022-10-22T13:52:04.325Z,49.32
2022-10-22T13:53:06.149Z,49.34
2022-10-22T13:54:16.061Z,48.62
2022-10-22T13:55:26.811Z,48.16
2022-10-22T13:56:28.572Z,48.40
2022-10-22T13:57:30.205Z,48.60
2022-10-22T13:58:31.760Z,48.56
2022-10-22T13:59:33.523Z,48.68
2022-10-22T14:00:37.411Z,49.27
2022-10-22T14:01:39.556Z,49.35
2022-10-22T14:02:41.870Z,49.38
2022-10-22T14:03:44.082Z,49.89
2022-10-22T14:04:46.462Z,49.35
2022-10-22T14:06:02.425Z,49.42
2022-10-22T14:07:04.350Z,49.59
2022-10-22T14:08:12.063Z,49.61
2022-10-22T14:09:16.130Z,49.35
2022-10-22T14:10:19.679Z,49.24
2022-10-22T14:11:21.514Z,49.78
2022-10-22T14:12:23.209Z,50.04
2022-10-22T14:13:27.854Z,50.13
2022-10-22T14:14:29.454Z,49.77
2022-10-22T14:15:30.980Z,49.86
2022-10-22T14:16:34.152Z,49.72
2022-10-22T14:17:36.065Z,50.15
2022-10-22T14:18:37.628Z,50.44
2022-10-22T14:19:39.645Z,50.40
2022-10-22T14:20:42.653Z,50.03